sensor_id;sensor_type;location;lat;lon;timestamp;pressure;altitude;pressure_sealevel;temperature;humidity
47082;BME280;33066;49.296;14.470;2023-05-01T00:01:33;97237.95;;;14.46;32.49
47082;BME280;33066;49.296;14.470;2023-05-01T00:03:58;97229.56;;;13.70;32.51
47082;BME280;33066;49.296;14.470;2023-05-01T00:06:24;97223.88;;;15.04;31.34
47082;BME280;33066;49.296;14.470;2023-05-01T00:08:50;97224.72;;;15.19;30.81
47082;BME280;33066;49.296;14.470;2023-05-01T00:11:14;97225.70;;;15.46;31.16
47082;BME280;33066;49.296;14.470;2023-05-01T00:13:41;97229.38;;;14.93;31.48
47082;BME280;33066;49.296;14.470;2023-05-01T00:16:07;97225.97;;;15.07;31.89
47082;BME280;33066;49.296;14.470;2023-05-01T00:18:32;97220.02;;;14.55;31.65
47082;BME280;33066;49.296;14.470;2023-05-01T00:20:57;97213.37;;;15.09;31.69
47082;BME280;33066;49.296;14.470;2023-05-01T00:23:21;97214.30;;;15.18;31.84
47082;BME280;33066;49.296;14.470;2023-05-01T00:25:46;97214.44;;;15.09;32.44
47082;BME280;33066;49.296;14.470;2023-05-01T00:28:13;97212.37;;;14.91;32.69
47082;BME280;33066;49.296;14.470;2023-05-01T00:30:39;97204.85;;;14.94;32.80
47082;BME280;33066;49.296;14.470;2023-05-01T00:33:03;97204.74;;;14.64;32.60
47082;BME280;33066;49.296;14.470;2023-05-01T00:35:29;97200.21;;;14.74;32.83
47082;BME280;33066;49.296;14.470;2023-05-01T00:37:54;97197.72;;;14.55;33.08
47082;BME280;33066;49.296;14.470;2023-05-01T00:40:21;97195.80;;;14.43;33.25
47082;BME280;33066;49.296;14.470;2023-05-01T00:42:45;97192.35;;;14.36;33.38
47082;BME280;33066;49.296;14.470;2023-05-01T00:45:11;97192.99;;;14.43;33.37
47082;BME280;33066;49.296;14.470;2023-05-01T00:47:36;97192.68;;;14.44;33.41
47082;BME280;33066;49.296;14.470;2023-05-01T00:50:04;97192.39;;;14.26;33.53
47082;BME280;33066;49.296;14.470;2023-05-01T00:52:28;97193.97;;;14.14;33.87
47082;BME280;33066;49.296;14.470;2023-05-01T00:54:53;97196.52;;;14.06;33.72
47082;BME280;33066;49.296;14.470;2023-05-01T00:57:19;97197.09;;;13.99;33.78
47082;BME280;33066;49.296;14.470;2023-05-01T00:59:43;97193.93;;;14.14;33.63
47082;BME280;33066;49.296;14.470;2023-05-01T01:02:10;97194.63;;;13.98;33.68
47082;BME280;33066;49.296;14.470;2023-05-01T01:04:34;97189.63;;;14.09;33.73
47082;BME280;33066;49.296;14.470;2023-05-01T01:07:06;97192.97;;;13.80;33.86
47082;BME280;33066;49.296;14.470;2023-05-01T01:09:36;97192.97;;;14.17;33.36
47082;BME280;33066;49.296;14.470;2023-05-01T01:11:58;97193.32;;;13.92;33.16
47082;BME280;33066;49.296;14.470;2023-05-01T01:14:20;97188.54;;;14.25;32.94
47082;BME280;33066;49.296;14.470;2023-05-01T01:16:47;97191.69;;;14.04;33.05
47082;BME280;33066;49.296;14.470;2023-05-01T01:19:21;97190.15;;;14.25;32.88
47082;BME280;33066;49.296;14.470;2023-05-01T01:21:35;97190.39;;;14.21;32.68
47082;BME280;33066;49.296;14.470;2023-05-01T01:29:02;97193.44;;;14.00;32.54
47082;BME280;33066;49.296;14.470;2023-05-01T01:31:16;97185.42;;;14.05;32.73
47082;BME280;33066;49.296;14.470;2023-05-01T01:33:53;97177.67;;;14.07;32.92
47082;BME280;33066;49.296;14.470;2023-05-01T01:36:10;97172.63;;;13.89;32.94
47082;BME280;33066;49.296;14.470;2023-05-01T01:38:39;97175.54;;;13.95;32.79
47082;BME280;33066;49.296;14.470;2023-05-01T01:40:58;97181.14;;;14.00;33.17
47082;BME280;33066;49.296;14.470;2023-05-01T01:43:23;97182.45;;;13.99;33.08
47082;BME280;33066;49.296;14.470;2023-05-01T01:45:51;97181.36;;;13.66;32.89
47082;BME280;33066;49.296;14.470;2023-05-01T01:48:16;97181.21;;;13.88;33.34
47082;BME280;33066;49.296;14.470;2023-05-01T01:50:37;97179.12;;;13.84;33.52
47082;BME280;33066;49.296;14.470;2023-05-01T01:53:03;97177.44;;;13.57;33.64
47082;BME280;33066;49.296;14.470;2023-05-01T01:55:31;97172.32;;;13.97;33.75
47082;BME280;33066;49.296;14.470;2023-05-01T01:57:55;97171.02;;;13.52;33.67
47082;BME280;33066;49.296;14.470;2023-05-01T02:00:18;97170.56;;;13.82;33.61
47082;BME280;33066;49.296;14.470;2023-05-01T02:02:43;97164.43;;;13.61;33.48
47082;BME280;33066;49.296;14.470;2023-05-01T02:05:12;97159.69;;;13.80;33.76
47082;BME280;33066;49.296;14.470;2023-05-01T02:07:33;97160.74;;;13.66;33.66
47082;BME280;33066;49.296;14.470;2023-05-01T02:10:00;97158.82;;;13.29;33.93
47082;BME280;33066;49.296;14.470;2023-05-01T02:12:24;97156.44;;;13.32;34.07
47082;BME280;33066;49.296;14.470;2023-05-01T02:14:50;97153.18;;;13.42;34.11
47082;BME280;33066;49.296;14.470;2023-05-01T02:17:14;97152.02;;;13.39;34.41
47082;BME280;33066;49.296;14.470;2023-05-01T02:19:40;97143.65;;;13.39;34.26
47082;BME280;33066;49.296;14.470;2023-05-01T02:22:06;97143.15;;;13.60;34.28
47082;BME280;33066;49.296;14.470;2023-05-01T02:24:32;97141.37;;;13.26;34.35
47082;BME280;33066;49.296;14.470;2023-05-01T02:27:01;97135.30;;;13.27;34.48
47082;BME280;33066;49.296;14.470;2023-05-01T02:29:22;97133.52;;;13.36;34.13
47082;BME280;33066;49.296;14.470;2023-05-01T02:31:48;97133.98;;;13.39;33.87
47082;BME280;33066;49.296;14.470;2023-05-01T02:34:13;97135.42;;;13.41;33.92
47082;BME280;33066;49.296;14.470;2023-05-01T02:36:39;97133.50;;;13.44;33.16
47082;BME280;33066;49.296;14.470;2023-05-01T02:39:06;97126.64;;;13.33;33.03
47082;BME280;33066;49.296;14.470;2023-05-01T02:41:32;97125.80;;;13.27;33.04
47082;BME280;33066;49.296;14.470;2023-05-01T02:44:02;97120.78;;;13.29;32.93
47082;BME280;33066;49.296;14.470;2023-05-01T02:46:23;97118.87;;;13.40;32.84
47082;BME280;33066;49.296;14.470;2023-05-01T02:48:48;97114.18;;;13.29;33.01
47082;BME280;33066;49.296;14.470;2023-05-01T02:51:13;97111.38;;;13.57;32.90
47082;BME280;33066;49.296;14.470;2023-05-01T02:53:38;97111.40;;;13.56;32.83
47082;BME280;33066;49.296;14.470;2023-05-01T02:56:05;97108.55;;;13.56;33.08
47082;BME280;33066;49.296;14.470;2023-05-01T02:58:30;97103.19;;;13.51;32.85
47082;BME280;33066;49.296;14.470;2023-05-01T03:00:55;97103.38;;;13.23;33.10
47082;BME280;33066;49.296;14.470;2023-05-01T03:03:20;97097.81;;;13.41;33.07
47082;BME280;33066;49.296;14.470;2023-05-01T03:05:45;97101.30;;;13.31;32.95
47082;BME280;33066;49.296;14.470;2023-05-01T03:08:10;97096.02;;;13.22;32.90
47082;BME280;33066;49.296;14.470;2023-05-01T03:13:00;97095.26;;;13.01;32.18
47082;BME280;33066;49.296;14.470;2023-05-01T03:15:26;97093.03;;;12.94;32.69
47082;BME280;33066;49.296;14.470;2023-05-01T03:17:51;97090.41;;;12.91;33.23
47082;BME280;33066;49.296;14.470;2023-05-01T03:20:17;97093.45;;;12.59;33.40
47082;BME280;33066;49.296;14.470;2023-05-01T03:22:42;97098.89;;;12.88;33.50
47082;BME280;33066;49.296;14.470;2023-05-01T03:25:08;97097.75;;;12.40;33.39
47082;BME280;33066;49.296;14.470;2023-05-01T03:27:33;97100.29;;;12.70;33.38
47082;BME280;33066;49.296;14.470;2023-05-01T03:29:59;97095.61;;;12.76;33.24
47082;BME280;33066;49.296;14.470;2023-05-01T03:32:25;97100.23;;;12.75;33.22
47082;BME280;33066;49.296;14.470;2023-05-01T03:34:50;97098.34;;;12.77;33.28
47082;BME280;33066;49.296;14.470;2023-05-01T03:37:16;97099.60;;;12.72;33.28
47082;BME280;33066;49.296;14.470;2023-05-01T03:39:42;97097.92;;;12.49;33.27
47082;BME280;33066;49.296;14.470;2023-05-01T03:42:07;97098.58;;;12.68;33.41
47082;BME280;33066;49.296;14.470;2023-05-01T03:44:33;97095.59;;;12.98;33.64
47082;BME280;33066;49.296;14.470;2023-05-01T03:46:59;97102.29;;;12.81;33.64
47082;BME280;33066;49.296;14.470;2023-05-01T03:49:23;97093.37;;;12.63;33.86
47082;BME280;33066;49.296;14.470;2023-05-01T03:51:49;97100.89;;;12.61;33.76
47082;BME280;33066;49.296;14.470;2023-05-01T03:54:15;97097.38;;;12.76;33.15
47082;BME280;33066;49.296;14.470;2023-05-01T03:56:40;97099.55;;;12.84;32.97
47082;BME280;33066;49.296;14.470;2023-05-01T03:59:05;97100.70;;;12.76;33.18
47082;BME280;33066;49.296;14.470;2023-05-01T04:01:31;97103.72;;;12.68;33.20
47082;BME280;33066;49.296;14.470;2023-05-01T04:03:57;97104.88;;;12.73;33.60
47082;BME280;33066;49.296;14.470;2023-05-01T04:06:21;97104.89;;;12.55;33.85
47082;BME280;33066;49.296;14.470;2023-05-01T04:08:47;97108.58;;;12.59;33.70
47082;BME280;33066;49.296;14.470;2023-05-01T04:11:12;97104.79;;;12.63;34.30
47082;BME280;33066;49.296;14.470;2023-05-01T04:13:38;97103.56;;;12.65;34.15
47082;BME280;33066;49.296;14.470;2023-05-01T04:16:04;97103.57;;;12.60;34.07
47082;BME280;33066;49.296;14.470;2023-05-01T04:18:29;97103.40;;;12.46;34.30
47082;BME280;33066;49.296;14.470;2023-05-01T04:20:55;97103.30;;;12.46;34.32
47082;BME280;33066;49.296;14.470;2023-05-01T04:23:20;97103.31;;;12.20;34.30
47082;BME280;33066;49.296;14.470;2023-05-01T04:25:46;97106.31;;;12.44;34.73
47082;BME280;33066;49.296;14.470;2023-05-01T04:28:12;97104.86;;;12.56;35.36
47082;BME280;33066;49.296;14.470;2023-05-01T04:30:37;97104.50;;;12.70;35.46
47082;BME280;33066;49.296;14.470;2023-05-01T04:33:03;97104.21;;;12.79;34.39
47082;BME280;33066;49.296;14.470;2023-05-01T04:35:28;97104.79;;;12.81;34.12
47082;BME280;33066;49.296;14.470;2023-05-01T04:37:53;97103.51;;;12.60;34.36
47082;BME280;33066;49.296;14.470;2023-05-01T04:40:19;97101.17;;;12.93;35.18
47082;BME280;33066;49.296;14.470;2023-05-01T04:42:45;97102.82;;;12.50;35.03
47082;BME280;33066;49.296;14.470;2023-05-01T04:45:10;97102.46;;;12.40;34.48
47082;BME280;33066;49.296;14.470;2023-05-01T04:47:35;97106.23;;;12.99;34.51
47082;BME280;33066;49.296;14.470;2023-05-01T04:50:01;97105.40;;;12.57;34.75
47082;BME280;33066;49.296;14.470;2023-05-01T04:52:27;97106.82;;;12.59;34.43
47082;BME280;33066;49.296;14.470;2023-05-01T04:54:52;97111.51;;;13.09;34.25
47082;BME280;33066;49.296;14.470;2023-05-01T04:57:17;97113.67;;;12.69;34.60
47082;BME280;33066;49.296;14.470;2023-05-01T04:59:43;97113.39;;;12.71;33.69
47082;BME280;33066;49.296;14.470;2023-05-01T05:02:09;97110.54;;;12.97;33.73
47082;BME280;33066;49.296;14.470;2023-05-01T05:04:35;97109.37;;;13.03;33.54
47082;BME280;33066;49.296;14.470;2023-05-01T05:07:00;97105.84;;;12.79;33.29
47082;BME280;33066;49.296;14.470;2023-05-01T05:09:25;97099.59;;;13.33;33.15
47082;BME280;33066;49.296;14.470;2023-05-01T05:11:51;97097.16;;;13.59;33.08
47082;BME280;33066;49.296;14.470;2023-05-01T05:14:16;97097.55;;;13.47;32.99
47082;BME280;33066;49.296;14.470;2023-05-01T05:16:43;97097.17;;;13.37;32.88
47082;BME280;33066;49.296;14.470;2023-05-01T05:19:06;97090.75;;;13.52;32.49
47082;BME280;33066;49.296;14.470;2023-05-01T05:21:32;97089.20;;;13.86;32.33
47082;BME280;33066;49.296;14.470;2023-05-01T05:23:58;97089.28;;;13.88;32.42
47082;BME280;33066;49.296;14.470;2023-05-01T05:26:23;97088.07;;;14.18;32.41
47082;BME280;33066;49.296;14.470;2023-05-01T05:28:49;97086.95;;;14.20;32.41
47082;BME280;33066;49.296;14.470;2023-05-01T05:31:14;97085.71;;;14.05;32.20
47082;BME280;33066;49.296;14.470;2023-05-01T05:33:41;97079.84;;;13.75;32.27
47082;BME280;33066;49.296;14.470;2023-05-01T05:36:05;97084.54;;;14.08;32.22
47082;BME280;33066;49.296;14.470;2023-05-01T05:38:30;97085.20;;;13.92;31.97
47082;BME280;33066;49.296;14.470;2023-05-01T05:40:56;97084.27;;;14.34;31.90
47082;BME280;33066;49.296;14.470;2023-05-01T05:43:22;97084.36;;;14.18;31.91
47082;BME280;33066;49.296;14.470;2023-05-01T05:45:47;97083.44;;;14.57;31.85
47082;BME280;33066;49.296;14.470;2023-05-01T05:48:12;97081.43;;;14.45;31.40
47082;BME280;33066;49.296;14.470;2023-05-01T05:50:39;97081.80;;;14.63;31.15
47082;BME280;33066;49.296;14.470;2023-05-01T05:53:04;97084.41;;;14.54;31.04
47082;BME280;33066;49.296;14.470;2023-05-01T05:55:29;97082.57;;;14.94;30.51
47082;BME280;33066;49.296;14.470;2023-05-01T05:57:54;97078.29;;;15.09;30.61
47082;BME280;33066;49.296;14.470;2023-05-01T06:00:20;97075.67;;;15.25;30.49
47082;BME280;33066;49.296;14.470;2023-05-01T06:02:46;97068.99;;;14.99;30.65
47082;BME280;33066;49.296;14.470;2023-05-01T06:05:11;97058.59;;;15.20;30.62
47082;BME280;33066;49.296;14.470;2023-05-01T06:07:37;97059.40;;;15.51;29.62
47082;BME280;33066;49.296;14.470;2023-05-01T06:10:02;97054.52;;;15.41;29.44
47082;BME280;33066;49.296;14.470;2023-05-01T06:12:27;97056.50;;;14.93;29.10
47082;BME280;33066;49.296;14.470;2023-05-01T06:14:53;97051.09;;;15.49;29.25
47082;BME280;33066;49.296;14.470;2023-05-01T06:17:19;97049.28;;;15.58;29.57
47082;BME280;33066;49.296;14.470;2023-05-01T06:19:44;97044.37;;;15.02;29.37
47082;BME280;33066;49.296;14.470;2023-05-01T06:22:09;97047.05;;;15.19;29.53
47082;BME280;33066;49.296;14.470;2023-05-01T06:24:35;97040.53;;;15.44;29.40
47082;BME280;33066;49.296;14.470;2023-05-01T06:27:02;97037.19;;;15.31;29.47
47082;BME280;33066;49.296;14.470;2023-05-01T06:29:26;97039.18;;;15.27;29.13
47082;BME280;33066;49.296;14.470;2023-05-01T06:31:52;97035.28;;;15.33;28.79
47082;BME280;33066;49.296;14.470;2023-05-01T06:34:19;97032.37;;;15.34;28.68
47082;BME280;33066;49.296;14.470;2023-05-01T06:36:42;97030.02;;;15.21;28.32
47082;BME280;33066;49.296;14.470;2023-05-01T06:39:07;97031.89;;;15.26;28.74
47082;BME280;33066;49.296;14.470;2023-05-01T06:41:33;97025.46;;;15.38;28.69
47082;BME280;33066;49.296;14.470;2023-05-01T06:43:58;97027.40;;;15.39;28.48
47082;BME280;33066;49.296;14.470;2023-05-01T06:46:23;97020.59;;;15.63;28.18
47082;BME280;33066;49.296;14.470;2023-05-01T06:48:48;97018.71;;;15.43;28.05
47082;BME280;33066;49.296;14.470;2023-05-01T06:51:14;97021.05;;;15.21;28.12
47082;BME280;33066;49.296;14.470;2023-05-01T06:53:39;97014.32;;;15.68;28.03
47082;BME280;33066;49.296;14.470;2023-05-01T06:56:04;97011.41;;;15.66;27.94
47082;BME280;33066;49.296;14.470;2023-05-01T06:58:31;97009.27;;;15.79;27.80
47082;BME280;33066;49.296;14.470;2023-05-01T07:00:57;97006.57;;;15.89;27.64
47082;BME280;33066;49.296;14.470;2023-05-01T07:03:21;97003.61;;;15.98;27.36
47082;BME280;33066;49.296;14.470;2023-05-01T07:05:46;97004.75;;;16.20;27.29
47082;BME280;33066;49.296;14.470;2023-05-01T07:08:12;97004.36;;;16.38;27.41
47082;BME280;33066;49.296;14.470;2023-05-01T07:10:39;97000.88;;;16.57;27.73
47082;BME280;33066;49.296;14.470;2023-05-01T07:13:03;96992.79;;;16.42;27.34
47082;BME280;33066;49.296;14.470;2023-05-01T07:15:28;96993.28;;;16.66;27.60
47082;BME280;33066;49.296;14.470;2023-05-01T07:17:53;96984.73;;;16.26;27.60
47082;BME280;33066;49.296;14.470;2023-05-01T07:20:19;96986.64;;;16.35;27.21
47082;BME280;33066;49.296;14.470;2023-05-01T07:22:45;96981.26;;;16.50;27.13
47082;BME280;33066;49.296;14.470;2023-05-01T07:25:10;96980.49;;;16.56;26.96
47082;BME280;33066;49.296;14.470;2023-05-01T07:27:36;96982.70;;;16.34;26.92
47082;BME280;33066;49.296;14.470;2023-05-01T07:30:02;96972.97;;;16.52;27.16
47082;BME280;33066;49.296;14.470;2023-05-01T07:32:27;96978.69;;;16.77;27.14
47082;BME280;33066;49.296;14.470;2023-05-01T07:34:53;96972.55;;;16.85;26.73
47082;BME280;33066;49.296;14.470;2023-05-01T07:37:18;96968.79;;;17.12;26.32
47082;BME280;33066;49.296;14.470;2023-05-01T07:39:43;96962.48;;;16.94;26.44
47082;BME280;33066;49.296;14.470;2023-05-01T07:42:09;96961.64;;;16.82;26.03
47082;BME280;33066;49.296;14.470;2023-05-01T07:44:34;96961.29;;;16.79;26.28
47082;BME280;33066;49.296;14.470;2023-05-01T07:47:02;96957.11;;;16.87;26.07
47082;BME280;33066;49.296;14.470;2023-05-01T07:49:25;96951.28;;;17.03;25.67
47082;BME280;33066;49.296;14.470;2023-05-01T07:51:51;96952.83;;;16.79;25.58
47082;BME280;33066;49.296;14.470;2023-05-01T07:54:16;96946.72;;;17.01;25.83
47082;BME280;33066;49.296;14.470;2023-05-01T07:56:42;96940.97;;;17.04;26.27
47082;BME280;33066;49.296;14.470;2023-05-01T07:59:08;96943.46;;;17.20;25.93
47082;BME280;33066;49.296;14.470;2023-05-01T08:01:33;96942.18;;;17.39;25.97
47082;BME280;33066;49.296;14.470;2023-05-01T08:03:58;96937.86;;;17.27;25.66
47082;BME280;33066;49.296;14.470;2023-05-01T08:06:24;96940.73;;;16.91;25.30
47082;BME280;33066;49.296;14.470;2023-05-01T08:08:49;96934.62;;;16.89;25.62
47082;BME280;33066;49.296;14.470;2023-05-01T08:11:14;96932.51;;;16.79;25.79
47082;BME280;33066;49.296;14.470;2023-05-01T08:13:39;96931.92;;;17.27;25.70
47082;BME280;33066;49.296;14.470;2023-05-01T08:16:05;96929.29;;;17.39;25.53
47082;BME280;33066;49.296;14.470;2023-05-01T08:18:30;96927.22;;;17.93;25.73
47082;BME280;33066;49.296;14.470;2023-05-01T08:20:55;96924.33;;;17.92;25.08
47082;BME280;33066;49.296;14.470;2023-05-01T08:23:20;96918.86;;;17.99;24.95
47082;BME280;33066;49.296;14.470;2023-05-01T08:25:46;96915.86;;;17.90;25.04
47082;BME280;33066;49.296;14.470;2023-05-01T08:28:11;96913.67;;;17.93;24.73
47082;BME280;33066;49.296;14.470;2023-05-01T08:30:36;96909.73;;;18.01;24.69
47082;BME280;33066;49.296;14.470;2023-05-01T08:33:02;96908.51;;;17.98;24.27
47082;BME280;33066;49.296;14.470;2023-05-01T08:35:27;96907.00;;;18.24;24.52
47082;BME280;33066;49.296;14.470;2023-05-01T08:37:52;96903.11;;;18.31;24.46
47082;BME280;33066;49.296;14.470;2023-05-01T08:40:19;96900.44;;;18.11;24.22
47082;BME280;33066;49.296;14.470;2023-05-01T08:42:44;96895.57;;;18.67;24.28
47082;BME280;33066;49.296;14.470;2023-05-01T08:45:09;96896.23;;;18.52;23.68
47082;BME280;33066;49.296;14.470;2023-05-01T08:47:35;96890.17;;;18.79;23.64
47082;BME280;33066;49.296;14.470;2023-05-01T08:49:59;96889.21;;;18.96;23.03
47082;BME280;33066;49.296;14.470;2023-05-01T08:52:25;96887.47;;;18.85;22.81
47082;BME280;33066;49.296;14.470;2023-05-01T08:54:49;96883.69;;;18.76;23.30
47082;BME280;33066;49.296;14.470;2023-05-01T08:57:14;96877.64;;;18.85;22.96
47082;BME280;33066;49.296;14.470;2023-05-01T08:59:39;96882.45;;;18.83;23.00
47082;BME280;33066;49.296;14.470;2023-05-01T09:02:05;96873.33;;;19.21;22.94
47082;BME280;33066;49.296;14.470;2023-05-01T09:04:31;96867.41;;;19.13;23.20
47082;BME280;33066;49.296;14.470;2023-05-01T09:06:55;96872.91;;;19.03;22.47
47082;BME280;33066;49.296;14.470;2023-05-01T09:09:20;96867.80;;;18.92;22.20
47082;BME280;33066;49.296;14.470;2023-05-01T09:11:46;96870.00;;;18.87;22.71
47082;BME280;33066;49.296;14.470;2023-05-01T09:14:12;96867.01;;;19.35;22.81
47082;BME280;33066;49.296;14.470;2023-05-01T09:16:37;96853.67;;;19.37;22.64
47082;BME280;33066;49.296;14.470;2023-05-01T09:19:01;96855.97;;;19.53;22.26
47082;BME280;33066;49.296;14.470;2023-05-01T09:21:27;96855.75;;;19.72;21.98
47082;BME280;33066;49.296;14.470;2023-05-01T09:23:51;96850.64;;;19.92;21.80
47082;BME280;33066;49.296;14.470;2023-05-01T09:26:17;96852.69;;;19.71;22.10
47082;BME280;33066;49.296;14.470;2023-05-01T09:28:43;96846.92;;;19.66;21.96
47082;BME280;33066;49.296;14.470;2023-05-01T09:31:20;96849.79;;;19.59;21.57
47082;BME280;33066;49.296;14.470;2023-05-01T09:33:32;96846.58;;;19.96;22.00
47082;BME280;33066;49.296;14.470;2023-05-01T09:35:57;96839.08;;;19.79;21.69
47082;BME280;33066;49.296;14.470;2023-05-01T09:38:24;96847.53;;;19.41;22.10
47082;BME280;33066;49.296;14.470;2023-05-01T09:40:49;96843.26;;;20.07;21.96
47082;BME280;33066;49.296;14.470;2023-05-01T09:45:40;96831.06;;;19.57;21.48
47082;BME280;33066;49.296;14.470;2023-05-01T09:48:09;96832.09;;;19.78;21.66
47082;BME280;33066;49.296;14.470;2023-05-01T09:50:30;96826.13;;;20.29;21.96
47082;BME280;33066;49.296;14.470;2023-05-01T09:52:54;96822.48;;;20.02;22.02
47082;BME280;33066;49.296;14.470;2023-05-01T09:55:20;96818.61;;;20.24;22.22
47082;BME280;33066;49.296;14.470;2023-05-01T09:57:46;96815.83;;;20.34;22.03
47082;BME280;33066;49.296;14.470;2023-05-01T10:00:11;96815.27;;;20.24;21.59
47082;BME280;33066;49.296;14.470;2023-05-01T10:02:35;96818.50;;;20.09;21.89
47082;BME280;33066;49.296;14.470;2023-05-01T10:05:02;96807.74;;;20.39;21.71
47082;BME280;33066;49.296;14.470;2023-05-01T10:07:26;96809.76;;;20.83;22.03
47082;BME280;33066;49.296;14.470;2023-05-01T10:09:52;96805.15;;;20.70;21.78
47082;BME280;33066;49.296;14.470;2023-05-01T10:12:22;96801.51;;;20.45;22.16
47082;BME280;33066;49.296;14.470;2023-05-01T10:14:50;96809.94;;;20.45;22.04
47082;BME280;33066;49.296;14.470;2023-05-01T10:17:17;96805.22;;;20.83;22.35
47082;BME280;33066;49.296;14.470;2023-05-01T10:19:32;96803.55;;;21.36;22.15
47082;BME280;33066;49.296;14.470;2023-05-01T10:21:58;96800.45;;;21.27;21.35
47082;BME280;33066;49.296;14.470;2023-05-01T10:24:23;96792.95;;;21.45;21.88
47082;BME280;33066;49.296;14.470;2023-05-01T10:26:48;96786.95;;;21.85;21.81
47082;BME280;33066;49.296;14.470;2023-05-01T10:29:13;96786.28;;;22.22;21.92
47082;BME280;33066;49.296;14.470;2023-05-01T10:31:38;96777.62;;;22.19;21.47
47082;BME280;33066;49.296;14.470;2023-05-01T10:34:03;96772.97;;;22.18;21.43
47082;BME280;33066;49.296;14.470;2023-05-01T10:36:35;96766.64;;;23.09;21.37
47082;BME280;33066;49.296;14.470;2023-05-01T10:38:56;96756.46;;;22.74;21.15
47082;BME280;33066;49.296;14.470;2023-05-01T10:43:44;96751.10;;;23.73;21.02
47082;BME280;33066;49.296;14.470;2023-05-01T10:48:52;96742.17;;;24.02;20.23
47082;BME280;33066;49.296;14.470;2023-05-01T10:51:09;96738.54;;;24.35;20.75
47082;BME280;33066;49.296;14.470;2023-05-01T10:53:24;96740.77;;;24.12;20.13
47082;BME280;33066;49.296;14.470;2023-05-01T10:55:50;96733.42;;;23.87;19.80
47082;BME280;33066;49.296;14.470;2023-05-01T11:00:40;96731.00;;;24.09;20.36
47082;BME280;33066;49.296;14.470;2023-05-01T11:10:25;96731.10;;;23.68;20.17
47082;BME280;33066;49.296;14.470;2023-05-01T11:12:49;96724.56;;;24.78;20.21
47082;BME280;33066;49.296;14.470;2023-05-01T11:15:11;96726.89;;;24.40;20.19
47082;BME280;33066;49.296;14.470;2023-05-01T11:17:45;96718.07;;;24.58;20.20
47082;BME280;33066;49.296;14.470;2023-05-01T11:20:01;96721.35;;;25.54;20.21
47082;BME280;33066;49.296;14.470;2023-05-01T11:22:26;96713.14;;;24.85;19.22
47082;BME280;33066;49.296;14.470;2023-05-01T11:24:51;96713.69;;;25.45;19.76
47082;BME280;33066;49.296;14.470;2023-05-01T11:27:16;96713.74;;;25.84;19.93
47082;BME280;33066;49.296;14.470;2023-05-01T11:29:44;96709.18;;;26.50;19.69
47082;BME280;33066;49.296;14.470;2023-05-01T11:32:07;96703.25;;;26.48;18.85
47082;BME280;33066;49.296;14.470;2023-05-01T11:34:34;96697.33;;;26.10;19.28
47082;BME280;33066;49.296;14.470;2023-05-01T11:36:58;96694.08;;;26.52;18.80
47082;BME280;33066;49.296;14.470;2023-05-01T11:39:23;96691.44;;;26.08;19.38
47082;BME280;33066;49.296;14.470;2023-05-01T11:41:48;96693.85;;;26.27;18.94
47082;BME280;33066;49.296;14.470;2023-05-01T11:44:16;96687.45;;;26.47;19.13
47082;BME280;33066;49.296;14.470;2023-05-01T11:46:39;96685.99;;;26.62;19.38
47082;BME280;33066;49.296;14.470;2023-05-01T11:49:05;96675.68;;;27.50;19.36
47082;BME280;33066;49.296;14.470;2023-05-01T11:51:31;96663.63;;;27.31;18.93
47082;BME280;33066;49.296;14.470;2023-05-01T11:53:58;96673.13;;;27.58;18.64
47082;BME280;33066;49.296;14.470;2023-05-01T11:56:23;96668.51;;;27.49;18.36
47082;BME280;33066;49.296;14.470;2023-05-01T11:58:48;96666.97;;;26.82;18.06
47082;BME280;33066;49.296;14.470;2023-05-01T12:01:14;96669.66;;;26.58;18.21
47082;BME280;33066;49.296;14.470;2023-05-01T12:03:41;96670.35;;;26.70;18.28
47082;BME280;33066;49.296;14.470;2023-05-01T12:06:08;96670.92;;;26.60;18.07
47082;BME280;33066;49.296;14.470;2023-05-01T12:08:32;96673.74;;;26.98;18.19
47082;BME280;33066;49.296;14.470;2023-05-01T12:10:58;96670.75;;;27.51;18.40
47082;BME280;33066;49.296;14.470;2023-05-01T12:13:24;96669.56;;;28.29;17.66
47082;BME280;33066;49.296;14.470;2023-05-01T12:15:51;96665.15;;;28.39;18.03
47082;BME280;33066;49.296;14.470;2023-05-01T12:18:16;96665.14;;;28.16;17.57
47082;BME280;33066;49.296;14.470;2023-05-01T12:20:43;96669.22;;;28.26;17.37
47082;BME280;33066;49.296;14.470;2023-05-01T12:23:07;96665.77;;;28.17;17.23
47082;BME280;33066;49.296;14.470;2023-05-01T12:25:32;96663.38;;;29.06;17.95
47082;BME280;33066;49.296;14.470;2023-05-01T12:27:58;96652.31;;;29.46;17.55
47082;BME280;33066;49.296;14.470;2023-05-01T12:30:25;96651.36;;;29.38;16.87
47082;BME280;33066;49.296;14.470;2023-05-01T12:32:49;96651.93;;;28.98;17.25
47082;BME280;33066;49.296;14.470;2023-05-01T12:35:15;96649.70;;;29.11;17.16
47082;BME280;33066;49.296;14.470;2023-05-01T12:37:40;96634.10;;;29.45;17.54
47082;BME280;33066;49.296;14.470;2023-05-01T12:40:12;96640.98;;;29.38;17.59
47082;BME280;33066;49.296;14.470;2023-05-01T12:42:32;96647.36;;;29.16;17.24
47082;BME280;33066;49.296;14.470;2023-05-01T12:44:59;96652.36;;;29.50;17.18
47082;BME280;33066;49.296;14.470;2023-05-01T12:47:24;96650.15;;;29.55;16.11
47082;BME280;33066;49.296;14.470;2023-05-01T12:54:42;96651.09;;;30.38;17.42
47082;BME280;33066;49.296;14.470;2023-05-01T12:57:08;96638.99;;;30.37;16.39
47082;BME280;33066;49.296;14.470;2023-05-01T12:59:34;96637.95;;;30.12;16.26
47082;BME280;33066;49.296;14.470;2023-05-01T13:01:59;96633.78;;;30.26;16.48
47082;BME280;33066;49.296;14.470;2023-05-01T13:04:24;96630.49;;;30.26;16.69
47082;BME280;33066;49.296;14.470;2023-05-01T13:06:51;96628.00;;;29.89;16.92
47082;BME280;33066;49.296;14.470;2023-05-01T13:09:16;96622.39;;;30.05;16.76